Tilford, South Dakota
Current Conditions -  °F | °C
As of 3:18 PM on Sunday 23 Nov 2014 (Local Time) from KRCA Reporting Station
Scattered Clouds Scattered Clouds  
Wind Chill: 24°   Ceiling: Unl
Heat Index: 37°   Visibility: 9mi
Dew Point: 19°   Wind: 36mph
Humidity: 48%   Direction: 330°NNW
Pressure: 29.69"   Gusts: 54mph
Location:  44.2544°N, 103.292°W
Report Text: KRCA 232218Z AUTO 33031G47KT 9SM FEW045 SCT055 SCT180 03/M07 A2969 RMK AO2 UPE2218 $
Loading
Personal Weather Stations






























Interactive Weather Map New forecast layout! Learn more

10-Day Weather Forecast

Advertisements
Track Severe Weather on mobile